Terminal Aerodrome Forecast
Issued by NWS

Home | Current Version | Previous Version | Text Only | Print | Product List | Glossary On
Versions: 1 2 3 4 5 6 7 8 9 10 11 12 13 14 15 16 17 18 19 20 21 22 23 24 25 26
000
FTUS43 KDVN 261100 AAA
TAFBRL
TAF AMD
KBRL 261102Z 2611/2706 20005KT P6SM BKN020
     FM261300 16005KT P6SM OVC018
      TEMPO 2614/2617 2SM -SN BR SCT008 OVC012
     FM261700 23012KT P6SM BKN025
     FM270000 28005KT P6SM OVC020=

USA.gov is the U.S. government's official web portal to all federal, state and local government web resources and services.